Oriana — ZCDU9 — position and weather

sailwx.info

Track history (hours):
 
Tides and Currents Weather Stations Pressure Air Temp Water Temp Dewpoint Dewpoint Depression Visibility Wind Speed Wind Dir Waves Ship Positions

Oriana (Bermuda)

Last reported at 2018-Aug-17 13:00 UTC. Time now 2018-Aug-18 00:47 UTC.
Position N 36°48' W 001°06'.

Length 261 m; beam 32.2 m; draft 8.2 m.

Type: Ship. MMSI: 310529000.

Wind from 360 at 13 knots

Barometer 1016.2 mb
Air temperature 25.0 ° C
Visibility: greater than 10.8 NM
Dewpoint 22.2 ° C
Water temperature 24.0 ° C

Date/timePositionNaut miles runAvg speedWind from/ knotsBaromVisibWave heightAir tempDewpointWater temp
2018-Aug-17 13:00N 36°48' W 001°06'84118.3 360 / 131016.210.8 25.022.224.0
2018-Aug-17 12:17N 36°45' E 000°38'618.0
2018-Aug-17 11:58N 36°44' E 000°32'818.1
2018-Aug-17 11:30N 36°43' E 000°21'918.0
2018-Aug-17 11:00N 36°41' E 000°10'4017.7
2018-Aug-17 08:43N 36°37' W 000°40'13016.8
2018-Aug-17 01:00N 36°12' W 003°18'7824.5 310 / 141016.210.8 21.419.220.0
2018-Aug-16 21:48N 36°02' W 004°54'820.0
2018-Aug-16 21:23N 36°00' W 005°04'720.2
2018-Aug-16 21:00N 35°59' W 005°13'816.9
2018-Aug-16 20:31N 35°58' W 005°24'815.2
2018-Aug-16 19:57N 35°56' W 005°34'5412.8
2018-Aug-16 15:44N 36°34' W 006°21'312.9
2018-Aug-16 15:29N 36°33' W 006°17'1 0.1
2018-Aug-16 05:18N 36°32' W 006°17'11 8.5
2018-Aug-16 04:00N 36°36' W 006°30'4421.9 210 / 71016.510.8 21.016.023.0
2018-Aug-16 02:00N 36°30' W 007°24'1511.2 220 / 101016.8 5.4 20.118.222.0
2018-Aug-16 00:39N 36°33' W 007°42'417.6
2018-Aug-16 00:24N 36°33' W 007°48'2319.2
2018-Aug-15 23:10N 36°33' W 008°17'619.3
2018-Aug-15 22:52N 36°33' W 008°24'819.2
2018-Aug-15 22:28N 36°32' W 008°34'918.8
2018-Aug-15 22:00N 36°32' W 008°45'1019.0
2018-Aug-15 21:30N 36°32' W 008°57'1019.5
2018-Aug-15 21:00N 36°33' W 009°09'919.1
2018-Aug-15 20:30N 36°37' W 009°20'1020.2
2018-Aug-15 20:00N 36°44' W 009°28'1019.3
2018-Aug-15 19:29N 36°53' W 009°34'919.8
2018-Aug-15 19:00N 37°02' W 009°37'1019.4
2018-Aug-15 18:30N 37°12' W 009°39'919.2
2018-Aug-15 18:00N 37°21' W 009°42'1019.6
2018-Aug-15 17:30N 37°31' W 009°45'1019.7
2018-Aug-15 17:00N 37°40' W 009°47'6512.0
2018-Aug-15 17:00N 37°36' W 009°42'1630.9 290 / 81017.110.8 20.018.417.0
2018-Aug-15 16:29N 37°51' W 009°50'919.2
2018-Aug-15 16:00N 37°59' W 009°53'1019.1
2018-Aug-15 15:30N 38°08' W 009°57'1019.4
2018-Aug-15 15:00N 38°17' W 010°01'1019.2
2018-Aug-15 14:30N 38°27' W 010°02'1019.2
2018-Aug-15 13:58N 38°37' W 010°05'919.4
2018-Aug-15 13:30N 38°46' W 010°07'1019.2
2018-Aug-15 13:00N 38°55' W 010°08'14954.6
2018-Aug-15 13:00N 38°42' W 010°06'2347.8 310 / 41017.5 5.4 19.918.317.0
2018-Aug-15 12:30N 39°05' W 010°09'1219.4
2018-Aug-15 11:55N 39°17' W 010°08'10519.6
2018-Aug-15 06:33N 41°02' W 010°08'119.0
2018-Aug-15 06:29N 41°03' W 010°08'3 5.9
2018-Aug-15 06:00N 41°06' W 010°06'9018.0 030 / 101015.727.0 19.517.917.0
2018-Aug-15 01:00N 42°36' W 010°06'15822.6 030 / 321018.410.8 18.816.517.0
2018-Aug-14 18:00N 45°00' W 008°36'7819.6 080 / 111023.610.8 19.015.620.0
2018-Aug-14 14:00N 46°06' W 007°36'9623.9 190 / 21024.710.8 18.917.320.0
2018-Aug-14 09:58N 47°29' W 006°24'6121.6
2018-Aug-14 07:09N 48°20' W 005°36'320.0
2018-Aug-14 07:00N 48°23' W 005°34'919.0
2018-Aug-14 06:30N 48°30' W 005°25'918.2
2018-Aug-14 06:00N 48°37' W 005°16'816.5
2018-Aug-14 05:30N 48°43' W 005°08'816.7
2018-Aug-14 05:00N 48°49' W 004°58'7427.3
2018-Aug-14 05:00N 48°42' W 005°00'1530.2 240 / 151019.0 1.1 17.017.016.0
2018-Aug-14 04:30N 48°54' W 004°49'3413.3
2018-Aug-14 02:00N 49°18' W 004°12'2557.3 290 / 181017.310.8 17.415.018.0
2018-Aug-14 01:33N 49°34' W 003°42'721.8
2018-Aug-14 01:15N 49°38' W 003°34'721.7
2018-Aug-14 00:54N 49°43' W 003°25'821.0
2018-Aug-14 00:30N 49°48' W 003°15'1220.4
2018-Aug-13 23:56N 49°56' W 003°02'819.4
2018-Aug-13 23:30N 49°60' W 002°50'918.4
2018-Aug-13 23:01N 50°03' W 002°37'917.3
2018-Aug-13 22:31N 50°06' W 002°25'916.1
2018-Aug-13 21:57N 50°09' W 002°11'3715.7
2018-Aug-13 19:36N 50°25' W 001°19'417.1
2018-Aug-13 19:20N 50°28' W 001°13'617.4
2018-Aug-13 19:00N 50°30' W 001°05'917.4
2018-Aug-13 18:30N 50°38' W 000°59'510.5
2018-Aug-13 18:01N 50°43' W 001°00'917.7
2018-Aug-13 17:30N 50°46' W 001°14'4 9.0
2018-Aug-13 17:00N 50°49' W 001°18'510.0
2018-Aug-13 16:31N 50°53' W 001°24'2 4.3
2018-Aug-13 16:00N 50°54' W 001°26'0 0.4
2018-Aug-13 15:26N 50°54' W 001°26'0 0.0
2018-Aug-13 13:14N 50°54' W 001°26'0 0.0
2018-Aug-13 12:01N 50°54' W 001°26'0 0.0
2018-Aug-13 11:55N 50°54' W 001°26'0 0.0
2018-Aug-13 11:24N 50°54' W 001°26'0 0.0
2018-Aug-13 11:00N 50°54' W 001°26'0 0.0
2018-Aug-13 10:30N 50°54' W 001°26'0 0.0
2018-Aug-13 10:00N 50°54' W 001°26'0 0.0
2018-Aug-13 09:30N 50°54' W 001°26'0 0.0
2018-Aug-13 08:54N 50°54' W 001°26'0 0.0
2018-Aug-13 08:30N 50°54' W 001°26'0 0.0
2018-Aug-13 07:54N 50°54' W 001°26'0 0.0
2018-Aug-13 07:30N 50°54' W 001°26'0 0.0
2018-Aug-13 07:00N 50°54' W 001°26'0 0.0
2018-Aug-13 06:30N 50°54' W 001°26'0 0.0
2018-Aug-13 05:48N 50°54' W 001°26'0 0.7
2018-Aug-13 05:30N 50°54' W 001°26'3 5.8
2018-Aug-13 05:00N 50°52' W 001°23'510.1
2018-Aug-13 04:30N 50°48' W 001°18'510.5
2018-Aug-13 04:01N 50°46' W 001°11'816.4
2018-Aug-13 03:30N 50°42' W 000°59'5 9.8
2018-Aug-13 03:00N 50°39' W 000°54'917.5
2018-Aug-13 02:30N 50°36' W 000°40'1215.1
2018-Aug-13 01:44N 50°33' W 000°23'713.7
2018-Aug-13 01:12N 50°32' W 000°11'316.8
2018-Aug-13 01:00N 50°30' W 000°07'815.9
2018-Aug-13 00:30N 50°31' E 000°06'915.7
2018-Aug-12 23:57N 50°32' E 000°19'715.1
2018-Aug-12 23:30N 50°34' E 000°29'714.7
2018-Aug-12 23:00N 50°36' E 000°40'714.4
2018-Aug-12 22:30N 50°41' E 000°49'714.8
2018-Aug-12 22:00N 50°46' E 000°58'3173.2
2018-Aug-12 22:00N 50°48' E 001°00'611.4 160 / 101008.327.0 18.516.018.0
2018-Aug-12 21:30N 50°51' E 001°08'816.9
2018-Aug-12 21:00N 50°56' E 001°19'917.9
2018-Aug-12 20:30N 51°02' E 001°29'1019.3
2018-Aug-12 20:01N 51°08' E 001°40'1019.9
2018-Aug-12 19:31N 51°16' E 001°50'918.7
2018-Aug-12 19:01N 51°24' E 001°57'816.9
2018-Aug-12 18:31N 51°22' E 002°11'815.7
2018-Aug-12 18:01N 51°22' E 002°23'816.1
2018-Aug-12 17:31N 51°23' E 002°36'714.0
2018-Aug-12 17:00N 51°25' E 002°47'7411.9
2018-Aug-12 17:00N 51°24' E 002°36'1429.5 270 / 61010.010.8 21.515.721.0
2018-Aug-12 16:30N 51°25' E 002°59'714.2
2018-Aug-12 16:00N 51°23' E 003°10'3 6.0
2018-Aug-12 15:30N 51°20' E 003°12'0 0.0
2018-Aug-12 14:59N 51°20' E 003°12'0 0.0
2018-Aug-12 14:30N 51°20' E 003°12'0 0.0
2018-Aug-12 14:00N 51°20' E 003°12'0 0.0
2018-Aug-12 13:28N 51°20' E 003°12'0 0.0
2018-Aug-12 13:00N 51°20' E 003°12'0 0.0
2018-Aug-12 12:30N 51°20' E 003°12'0 0.0
2018-Aug-12 12:00N 51°20' E 003°12'0 0.0
2018-Aug-12 11:29N 51°20' E 003°12'0 0.0
2018-Aug-12 10:59N 51°20' E 003°12'0 0.0
2018-Aug-12 10:29N 51°20' E 003°12'2 5.1
2018-Aug-12 10:00N 51°18' E 003°12'2221.6 180 / 141018.610.8 22.513.021.0
2018-Aug-12 09:59N 51°20' E 003°12'0 0.0
2018-Aug-12 09:30N 51°20' E 003°12'0 0.0
2018-Aug-12 08:59N 51°20' E 003°12'0 0.0
2018-Aug-12 08:30N 51°20' E 003°12'0 0.0
2018-Aug-12 08:00N 51°20' E 003°12'0 0.0
2018-Aug-12 07:31N 51°20' E 003°12'0 0.0
2018-Aug-12 07:00N 51°20' E 003°12'0 0.0
2018-Aug-12 06:30N 51°20' E 003°12'0 0.0
2018-Aug-12 05:59N 51°20' E 003°12'0 0.1
2018-Aug-12 05:30N 51°20' E 003°12'1 2.9
2018-Aug-12 05:00N 51°22' E 003°11'612.9
2018-Aug-12 04:30N 51°24' E 003°02'917.5
2018-Aug-12 04:00N 51°22' E 002°48'612.5
2018-Aug-12 03:30N 51°22' E 002°38'611.3
2018-Aug-12 03:01N 51°22' E 002°29'815.4
2018-Aug-12 02:30N 51°18' E 002°18'816.1
2018-Aug-12 02:01N 51°14' E 002°08'815.9
2018-Aug-12 01:31N 51°10' E 001°57'816.1
2018-Aug-12 01:01N 51°07' E 001°45'917.3
2018-Aug-12 00:31N 51°01' E 001°35'918.1
2018-Aug-12 00:00N 50°53' E 001°28'1019.5
2018-Aug-11 23:31N 50°44' E 001°23'918.2
2018-Aug-11 23:01N 50°38' E 001°12'918.4
2018-Aug-11 22:30N 50°32' E 001°01'918.3
2018-Aug-11 22:00N 50°29' E 000°47'5340.2
2018-Aug-11 22:00N 50°30' E 000°54'1626.8 130 / 131019.727.0 18.516.018.0
2018-Aug-11 21:23N 50°26' E 000°29'718.5
2018-Aug-11 21:01N 50°24' E 000°19'1519.4
2018-Aug-11 20:15N 50°21' W 000°04'518.4
2018-Aug-11 20:00N 50°22' W 000°10'918.4
2018-Aug-11 19:31N 50°27' W 000°22'918.1
2018-Aug-11 19:01N 50°32' W 000°34'918.7
2018-Aug-11 18:31N 50°37' W 000°47'917.0
2018-Aug-11 18:01N 50°42' W 000°58'612.9
2018-Aug-11 17:31N 50°45' W 001°07'816.0
2018-Aug-11 17:01N 50°47' W 001°19'4 8.4
2018-Aug-11 16:30N 50°51' W 001°21'4 7.4
2018-Aug-11 16:00N 50°54' W 001°25'0 0.8
2018-Aug-11 15:28N 50°54' W 001°26'0 0.0
2018-Aug-11 14:55N 50°54' W 001°26'0 0.0
2018-Aug-11 14:30N 50°54' W 001°26'0 0.0
2018-Aug-11 14:00N 50°54' W 001°26'0 0.0
2018-Aug-11 13:30N 50°54' W 001°26'0 0.0
2018-Aug-11 12:57N 50°54' W 001°26'0 0.0
2018-Aug-11 12:27N 50°54' W 001°26'0 0.0
2018-Aug-11 12:00N 50°54' W 001°26'0 0.0
2018-Aug-11 11:27N 50°54' W 001°26'0 0.0
2018-Aug-11 10:54N 50°54' W 001°26'0 0.0
2018-Aug-11 10:30N 50°54' W 001°26'0 0.0
2018-Aug-11 10:00N 50°54' W 001°26'0 0.0
2018-Aug-11 09:30N 50°54' W 001°26'0 0.0
2018-Aug-11 08:56N 50°54' W 001°26'0 0.0
2018-Aug-11 08:28N 50°54' W 001°26'0 0.0
2018-Aug-11 07:58N 50°54' W 001°26'0 0.0
2018-Aug-11 07:28N 50°54' W 001°26'0 0.0
2018-Aug-11 06:58N 50°54' W 001°26'0 0.0
2018-Aug-11 06:22N 50°54' W 001°26'0 0.8
2018-Aug-11 06:01N 50°54' W 001°26'2 3.5
2018-Aug-11 05:30N 50°53' W 001°24'4 7.2
2018-Aug-11 05:00N 50°51' W 001°20'4 8.4
2018-Aug-11 04:31N 50°47' W 001°19'815.1
2018-Aug-11 04:00N 50°45' W 001°07'714.6
2018-Aug-11 03:30N 50°41' W 000°58'611.5
2018-Aug-11 03:00N 50°35' W 000°59'612.1
2018-Aug-11 02:30N 50°31' W 001°05'611.7
2018-Aug-11 02:00N 50°28' W 001°14'3514.3
2018-Aug-10 23:35N 50°18' W 002°06'415.8
2018-Aug-10 23:21N 50°18' W 002°12'616.7
2018-Aug-10 23:00N 50°17' W 002°21'816.7
2018-Aug-10 22:30N 50°15' W 002°33'917.2
2018-Aug-10 22:00N 50°13' W 002°46'2107.1
2018-Aug-10 22:00N 50°12' W 002°48'815.6 320 / 151023.410.8 17.012.516.0
2018-Aug-10 21:30N 50°11' W 002°60'918.2
2018-Aug-10 21:00N 50°07' W 003°13'918.2
2018-Aug-10 20:30N 50°03' W 003°25'918.1
2018-Aug-10 20:00N 49°59' W 003°38'918.5
2018-Aug-10 19:30N 49°58' W 003°52'1418.4
2018-Aug-10 18:45N 49°54' W 004°13'618.4
2018-Aug-10 18:25N 49°53' W 004°22'1118.5
2018-Aug-10 17:51N 49°50' W 004°38'15014.0
2018-Aug-10 07:07N 52°14' W 005°46'316.2
2018-Aug-10 06:57N 52°17' W 005°46'716.2
2018-Aug-10 06:30N 52°24' W 005°43'814.9
2018-Aug-10 06:00N 52°30' W 005°36'4912.1 180 / 131015.810.8 14.0 8.014.0
2018-Aug-10 02:00N 53°18' W 005°24'3030.2 250 / 181014.410.8 13.8 8.215.0
2018-Aug-10 01:00N 53°48' W 005°18'2318.9 260 / 221015.110.8 13.512.013.0
2018-Aug-09 23:46N 54°11' W 005°15'815.7
2018-Aug-09 23:17N 54°18' W 005°14'415.9
2018-Aug-09 23:00N 54°23' W 005°14'815.6
2018-Aug-09 22:30N 54°31' W 005°14'816.2
2018-Aug-09 22:00N 54°39' W 005°18'3160.1
2018-Aug-09 22:00N 54°36' W 005°18'1122.3 230 / 101013.410.8 14.010.213.0
2018-Aug-09 21:30N 54°47' W 005°19'916.5
2018-Aug-09 20:59N 54°55' W 005°19'816.0
2018-Aug-09 20:30N 55°03' W 005°18'2715.8
2018-Aug-09 18:47N 55°28' W 005°00'517.3
2018-Aug-09 18:30N 55°33' W 004°59'917.6
2018-Aug-09 17:59N 55°42' W 004°60'714.5
2018-Aug-09 17:28N 55°50' W 004°57'715.2
2018-Aug-09 17:00N 55°56' W 004°54'5 9.4
2018-Aug-09 16:30N 55°57' W 004°46'0 0.1
2018-Aug-09 15:57N 55°57' W 004°46'0 0.0
2018-Aug-09 15:30N 55°57' W 004°46'0 0.0
2018-Aug-09 14:57N 55°57' W 004°46'0 0.0
2018-Aug-09 14:30N 55°57' W 004°46'0 0.0
2018-Aug-09 14:00N 55°57' W 004°46'0 0.0
2018-Aug-09 13:30N 55°57' W 004°46'0 0.0
2018-Aug-09 13:00N 55°57' W 004°46'0 0.0
2018-Aug-09 12:27N 55°57' W 004°46'0 0.0
2018-Aug-09 12:00N 55°57' W 004°46'0 0.0
2018-Aug-09 11:30N 55°57' W 004°46'0 0.0
2018-Aug-09 10:36N 55°57' W 004°46'0 0.0
2018-Aug-09 10:30N 55°57' W 004°46'0 0.0
2018-Aug-09 10:00N 55°57' W 004°46'0 0.0
2018-Aug-09 09:24N 55°57' W 004°46'0 0.0
2018-Aug-09 09:00N 55°57' W 004°46'0 0.0
2018-Aug-09 08:30N 55°57' W 004°46'0 0.0
2018-Aug-09 08:00N 55°57' W 004°46'0 0.0
2018-Aug-09 07:30N 55°57' W 004°46'0 1.0
2018-Aug-09 07:00N 55°58' W 004°46'5 9.5
2018-Aug-09 06:30N 55°56' W 004°54'916.7
2018-Aug-09 05:57N 55°47' W 004°58'713.9
2018-Aug-09 05:26N 55°40' W 004°59'612.7
2018-Aug-09 04:57N 55°34' W 004°57'714.7
2018-Aug-09 04:30N 55°27' W 004°59'816.2
2018-Aug-09 04:00N 55°22' W 005°09'916.4
2018-Aug-09 03:29N 55°17' W 005°22'715.7
2018-Aug-09 03:01N 55°14' W 005°33'815.7
2018-Aug-09 02:31N 55°14' W 005°47'612.2
2018-Aug-09 02:00N 55°14' W 005°58'13874.3
2018-Aug-09 02:00N 55°12' W 005°36'1734.5 200 / 211013.910.8 12.4 7.915.0
2018-Aug-09 01:30N 55°18' W 006°03'5 9.1
2018-Aug-09 01:00N 55°21' W 006°09'510.8
2018-Aug-09 00:30N 55°22' W 006°19'510.1
2018-Aug-09 00:00N 55°25' W 006°26'5 9.7
2018-Aug-08 23:30N 55°29' W 006°31'510.2
2018-Aug-08 23:00N 55°33' W 006°37'5 9.7
2018-Aug-08 22:30N 55°37' W 006°42'5 9.3
2018-Aug-08 22:00N 55°41' W 006°47'5299.8
2018-Aug-08 22:00N 55°36' W 006°48'918.0 230 / 211010.310.8 13.6 8.413.0
2018-Aug-08 21:30N 55°44' W 006°52'510.3
2018-Aug-08 21:00N 55°49' W 006°58'510.9
2018-Aug-08 20:30N 55°53' W 007°04'24 9.6
2018-Aug-08 18:00N 56°12' W 007°30'4611.6 240 / 241007.810.8 13.5 8.514.0
2018-Aug-08 14:00N 56°54' W 008°06'10112.7 250 / 231004.510.8 13.1 8.514.0
2018-Aug-08 06:00N 58°30' W 007°06'6015.1 230 / 271001.610.8 13.0 9.113.0
2018-Aug-08 02:00N 59°30' W 006°54'13115.9 200 / 7998.710.8 12.4 8.613.0
2018-Aug-07 17:46N 61°40' W 006°31'1014.8
2018-Aug-07 17:05N 61°50' W 006°32'214.6
2018-Aug-07 16:57N 61°52' W 006°33'715.6
2018-Aug-07 16:30N 61°58' W 006°42'  
Track history (hours):
 
Tides and Currents Weather Stations Pressure Air Temp Water Temp Dewpoint Dewpoint Depression Visibility Wind Speed Wind Dir Waves Ship Positions

Oriana (Bermuda)

Last reported at 2018-Aug-17 13:00 UTC. Time now 2018-Aug-18 00:47 UTC.
Position N 36°48' W 001°06'.

Length 261 m; beam 32.2 m; draft 8.2 m.

Type: Ship. MMSI: 310529000.

Wind from 360 at 13 knots

Barometer 1016.2 mb
Air temperature 25.0 ° C
Visibility: greater than 10.8 NM
Dewpoint 22.2 ° C
Water temperature 24.0 ° C

Date/timePositionNaut miles runAvg speedWind from/ knotsBaromVisibWave heightAir tempDewpointWater temp
2018-Aug-17 13:00N 36°48' W 001°06'84118.3 360 / 131016.210.8 25.022.224.0
2018-Aug-17 12:17N 36°45' E 000°38'618.0
2018-Aug-17 11:58N 36°44' E 000°32'818.1
2018-Aug-17 11:30N 36°43' E 000°21'918.0
2018-Aug-17 11:00N 36°41' E 000°10'4017.7
2018-Aug-17 08:43N 36°37' W 000°40'13016.8
2018-Aug-17 01:00N 36°12' W 003°18'7824.5 310 / 141016.210.8 21.419.220.0
2018-Aug-16 21:48N 36°02' W 004°54'820.0
2018-Aug-16 21:23N 36°00' W 005°04'720.2
2018-Aug-16 21:00N 35°59' W 005°13'816.9
2018-Aug-16 20:31N 35°58' W 005°24'815.2
2018-Aug-16 19:57N 35°56' W 005°34'5412.8
2018-Aug-16 15:44N 36°34' W 006°21'312.9
2018-Aug-16 15:29N 36°33' W 006°17'1 0.1
2018-Aug-16 05:18N 36°32' W 006°17'11 8.5
2018-Aug-16 04:00N 36°36' W 006°30'4421.9 210 / 71016.510.8 21.016.023.0
2018-Aug-16 02:00N 36°30' W 007°24'1511.2 220 / 101016.8 5.4 20.118.222.0
2018-Aug-16 00:39N 36°33' W 007°42'417.6
2018-Aug-16 00:24N 36°33' W 007°48'2319.2
2018-Aug-15 23:10N 36°33' W 008°17'619.3
2018-Aug-15 22:52N 36°33' W 008°24'819.2
2018-Aug-15 22:28N 36°32' W 008°34'918.8
2018-Aug-15 22:00N 36°32' W 008°45'1019.0
2018-Aug-15 21:30N 36°32' W 008°57'1019.5
2018-Aug-15 21:00N 36°33' W 009°09'919.1
2018-Aug-15 20:30N 36°37' W 009°20'1020.2
2018-Aug-15 20:00N 36°44' W 009°28'1019.3
2018-Aug-15 19:29N 36°53' W 009°34'919.8
2018-Aug-15 19:00N 37°02' W 009°37'1019.4
2018-Aug-15 18:30N 37°12' W 009°39'919.2
2018-Aug-15 18:00N 37°21' W 009°42'1019.6
2018-Aug-15 17:30N 37°31' W 009°45'1019.7
2018-Aug-15 17:00N 37°40' W 009°47'6512.0
2018-Aug-15 17:00N 37°36' W 009°42'1630.9 290 / 81017.110.8 20.018.417.0
2018-Aug-15 16:29N 37°51' W 009°50'919.2
2018-Aug-15 16:00N 37°59' W 009°53'1019.1
2018-Aug-15 15:30N 38°08' W 009°57'1019.4
2018-Aug-15 15:00N 38°17' W 010°01'1019.2
2018-Aug-15 14:30N 38°27' W 010°02'1019.2
2018-Aug-15 13:58N 38°37' W 010°05'919.4
2018-Aug-15 13:30N 38°46' W 010°07'1019.2
2018-Aug-15 13:00N 38°55' W 010°08'14954.6
2018-Aug-15 13:00N 38°42' W 010°06'2347.8 310 / 41017.5 5.4 19.918.317.0
2018-Aug-15 12:30N 39°05' W 010°09'1219.4
2018-Aug-15 11:55N 39°17' W 010°08'10519.6
2018-Aug-15 06:33N 41°02' W 010°08'119.0
2018-Aug-15 06:29N 41°03' W 010°08'3 5.9
2018-Aug-15 06:00N 41°06' W 010°06'9018.0 030 / 101015.727.0 19.517.917.0
2018-Aug-15 01:00N 42°36' W 010°06'15822.6 030 / 321018.410.8 18.816.517.0
2018-Aug-14 18:00N 45°00' W 008°36'7819.6 080 / 111023.610.8 19.015.620.0
2018-Aug-14 14:00N 46°06' W 007°36'9623.9 190 / 21024.710.8 18.917.320.0
2018-Aug-14 09:58N 47°29' W 006°24'6121.6
2018-Aug-14 07:09N 48°20' W 005°36'320.0
2018-Aug-14 07:00N 48°23' W 005°34'919.0
2018-Aug-14 06:30N 48°30' W 005°25'918.2
2018-Aug-14 06:00N 48°37' W 005°16'816.5
2018-Aug-14 05:30N 48°43' W 005°08'816.7
2018-Aug-14 05:00N 48°49' W 004°58'7427.3
2018-Aug-14 05:00N 48°42' W 005°00'1530.2 240 / 151019.0 1.1 17.017.016.0
2018-Aug-14 04:30N 48°54' W 004°49'3413.3
2018-Aug-14 02:00N 49°18' W 004°12'2557.3 290 / 181017.310.8 17.415.018.0
2018-Aug-14 01:33N 49°34' W 003°42'721.8
2018-Aug-14 01:15N 49°38' W 003°34'721.7
2018-Aug-14 00:54N 49°43' W 003°25'821.0
2018-Aug-14 00:30N 49°48' W 003°15'1220.4
2018-Aug-13 23:56N 49°56' W 003°02'819.4
2018-Aug-13 23:30N 49°60' W 002°50'918.4
2018-Aug-13 23:01N 50°03' W 002°37'917.3
2018-Aug-13 22:31N 50°06' W 002°25'916.1
2018-Aug-13 21:57N 50°09' W 002°11'3715.7
2018-Aug-13 19:36N 50°25' W 001°19'417.1
2018-Aug-13 19:20N 50°28' W 001°13'617.4
2018-Aug-13 19:00N 50°30' W 001°05'917.4
2018-Aug-13 18:30N 50°38' W 000°59'510.5
2018-Aug-13 18:01N 50°43' W 001°00'917.7
2018-Aug-13 17:30N 50°46' W 001°14'4 9.0
2018-Aug-13 17:00N 50°49' W 001°18'510.0
2018-Aug-13 16:31N 50°53' W 001°24'2 4.3
2018-Aug-13 16:00N 50°54' W 001°26'0 0.4
2018-Aug-13 15:26N 50°54' W 001°26'0 0.0
2018-Aug-13 13:14N 50°54' W 001°26'0 0.0
2018-Aug-13 12:01N 50°54' W 001°26'0 0.0
2018-Aug-13 11:55N 50°54' W 001°26'0 0.0
2018-Aug-13 11:24N 50°54' W 001°26'0 0.0
2018-Aug-13 11:00N 50°54' W 001°26'0 0.0
2018-Aug-13 10:30N 50°54' W 001°26'0 0.0
2018-Aug-13 10:00N 50°54' W 001°26'0 0.0
2018-Aug-13 09:30N 50°54' W 001°26'0 0.0
2018-Aug-13 08:54N 50°54' W 001°26'0 0.0
2018-Aug-13 08:30N 50°54' W 001°26'0 0.0
2018-Aug-13 07:54N 50°54' W 001°26'0 0.0
2018-Aug-13 07:30N 50°54' W 001°26'0 0.0
2018-Aug-13 07:00N 50°54' W 001°26'0 0.0
2018-Aug-13 06:30N 50°54' W 001°26'0 0.0
2018-Aug-13 05:48N 50°54' W 001°26'0 0.7
2018-Aug-13 05:30N 50°54' W 001°26'3 5.8
2018-Aug-13 05:00N 50°52' W 001°23'510.1
2018-Aug-13 04:30N 50°48' W 001°18'510.5
2018-Aug-13 04:01N 50°46' W 001°11'816.4
2018-Aug-13 03:30N 50°42' W 000°59'5 9.8
2018-Aug-13 03:00N 50°39' W 000°54'917.5
2018-Aug-13 02:30N 50°36' W 000°40'1215.1
2018-Aug-13 01:44N 50°33' W 000°23'713.7
2018-Aug-13 01:12N 50°32' W 000°11'316.8
2018-Aug-13 01:00N 50°30' W 000°07'815.9
2018-Aug-13 00:30N 50°31' E 000°06'915.7
2018-Aug-12 23:57N 50°32' E 000°19'715.1
2018-Aug-12 23:30N 50°34' E 000°29'714.7
2018-Aug-12 23:00N 50°36' E 000°40'714.4
2018-Aug-12 22:30N 50°41' E 000°49'714.8
2018-Aug-12 22:00N 50°46' E 000°58'3173.2
2018-Aug-12 22:00N 50°48' E 001°00'611.4 160 / 101008.327.0 18.516.018.0
2018-Aug-12 21:30N 50°51' E 001°08'816.9
2018-Aug-12 21:00N 50°56' E 001°19'917.9
2018-Aug-12 20:30N 51°02' E 001°29'1019.3
2018-Aug-12 20:01N 51°08' E 001°40'1019.9
2018-Aug-12 19:31N 51°16' E 001°50'918.7
2018-Aug-12 19:01N 51°24' E 001°57'816.9
2018-Aug-12 18:31N 51°22' E 002°11'815.7
2018-Aug-12 18:01N 51°22' E 002°23'816.1
2018-Aug-12 17:31N 51°23' E 002°36'714.0
2018-Aug-12 17:00N 51°25' E 002°47'7411.9
2018-Aug-12 17:00N 51°24' E 002°36'1429.5 270 / 61010.010.8 21.515.721.0
2018-Aug-12 16:30N 51°25' E 002°59'714.2
2018-Aug-12 16:00N 51°23' E 003°10'3 6.0
2018-Aug-12 15:30N 51°20' E 003°12'0 0.0
2018-Aug-12 14:59N 51°20' E 003°12'0 0.0
2018-Aug-12 14:30N 51°20' E 003°12'0 0.0
2018-Aug-12 14:00N 51°20' E 003°12'0 0.0
2018-Aug-12 13:28N 51°20' E 003°12'0 0.0
2018-Aug-12 13:00N 51°20' E 003°12'0 0.0
2018-Aug-12 12:30N 51°20' E 003°12'0 0.0
2018-Aug-12 12:00N 51°20' E 003°12'0 0.0
2018-Aug-12 11:29N 51°20' E 003°12'0 0.0
2018-Aug-12 10:59N 51°20' E 003°12'0 0.0
2018-Aug-12 10:29N 51°20' E 003°12'2 5.1
2018-Aug-12 10:00N 51°18' E 003°12'2221.6 180 / 141018.610.8 22.513.021.0
2018-Aug-12 09:59N 51°20' E 003°12'0 0.0
2018-Aug-12 09:30N 51°20' E 003°12'0 0.0
2018-Aug-12 08:59N 51°20' E 003°12'0 0.0
2018-Aug-12 08:30N 51°20' E 003°12'0 0.0
2018-Aug-12 08:00N 51°20' E 003°12'0 0.0
2018-Aug-12 07:31N 51°20' E 003°12'0 0.0
2018-Aug-12 07:00N 51°20' E 003°12'0 0.0
2018-Aug-12 06:30N 51°20' E 003°12'0 0.0
2018-Aug-12 05:59N 51°20' E 003°12'0 0.1
2018-Aug-12 05:30N 51°20' E 003°12'1 2.9
2018-Aug-12 05:00N 51°22' E 003°11'612.9
2018-Aug-12 04:30N 51°24' E 003°02'917.5
2018-Aug-12 04:00N 51°22' E 002°48'612.5
2018-Aug-12 03:30N 51°22' E 002°38'611.3
2018-Aug-12 03:01N 51°22' E 002°29'815.4
2018-Aug-12 02:30N 51°18' E 002°18'816.1
2018-Aug-12 02:01N 51°14' E 002°08'815.9
2018-Aug-12 01:31N 51°10' E 001°57'816.1
2018-Aug-12 01:01N 51°07' E 001°45'917.3
2018-Aug-12 00:31N 51°01' E 001°35'918.1
2018-Aug-12 00:00N 50°53' E 001°28'1019.5
2018-Aug-11 23:31N 50°44' E 001°23'918.2
2018-Aug-11 23:01N 50°38' E 001°12'918.4
2018-Aug-11 22:30N 50°32' E 001°01'918.3
2018-Aug-11 22:00N 50°29' E 000°47'5340.2
2018-Aug-11 22:00N 50°30' E 000°54'1626.8 130 / 131019.727.0 18.516.018.0
2018-Aug-11 21:23N 50°26' E 000°29'718.5
2018-Aug-11 21:01N 50°24' E 000°19'1519.4
2018-Aug-11 20:15N 50°21' W 000°04'518.4
2018-Aug-11 20:00N 50°22' W 000°10'918.4
2018-Aug-11 19:31N 50°27' W 000°22'918.1
2018-Aug-11 19:01N 50°32' W 000°34'918.7
2018-Aug-11 18:31N 50°37' W 000°47'917.0
2018-Aug-11 18:01N 50°42' W 000°58'612.9
2018-Aug-11 17:31N 50°45' W 001°07'816.0
2018-Aug-11 17:01N 50°47' W 001°19'4 8.4
2018-Aug-11 16:30N 50°51' W 001°21'4 7.4
2018-Aug-11 16:00N 50°54' W 001°25'0 0.8
2018-Aug-11 15:28N 50°54' W 001°26'0 0.0
2018-Aug-11 14:55N 50°54' W 001°26'0 0.0
2018-Aug-11 14:30N 50°54' W 001°26'0 0.0
2018-Aug-11 14:00N 50°54' W 001°26'0 0.0
2018-Aug-11 13:30N 50°54' W 001°26'0 0.0
2018-Aug-11 12:57N 50°54' W 001°26'0 0.0
2018-Aug-11 12:27N 50°54' W 001°26'0 0.0
2018-Aug-11 12:00N 50°54' W 001°26'0 0.0
2018-Aug-11 11:27N 50°54' W 001°26'0 0.0
2018-Aug-11 10:54N 50°54' W 001°26'0 0.0
2018-Aug-11 10:30N 50°54' W 001°26'0 0.0
2018-Aug-11 10:00N 50°54' W 001°26'0 0.0
2018-Aug-11 09:30N 50°54' W 001°26'0 0.0
2018-Aug-11 08:56N 50°54' W 001°26'0 0.0
2018-Aug-11 08:28N 50°54' W 001°26'0 0.0
2018-Aug-11 07:58N 50°54' W 001°26'0 0.0
2018-Aug-11 07:28N 50°54' W 001°26'0 0.0
2018-Aug-11 06:58N 50°54' W 001°26'0 0.0
2018-Aug-11 06:22N 50°54' W 001°26'0 0.8
2018-Aug-11 06:01N 50°54' W 001°26'2 3.5
2018-Aug-11 05:30N 50°53' W 001°24'4 7.2
2018-Aug-11 05:00N 50°51' W 001°20'4 8.4
2018-Aug-11 04:31N 50°47' W 001°19'815.1
2018-Aug-11 04:00N 50°45' W 001°07'714.6
2018-Aug-11 03:30N 50°41' W 000°58'611.5
2018-Aug-11 03:00N 50°35' W 000°59'612.1
2018-Aug-11 02:30N 50°31' W 001°05'611.7
2018-Aug-11 02:00N 50°28' W 001°14'3514.3
2018-Aug-10 23:35N 50°18' W 002°06'415.8
2018-Aug-10 23:21N 50°18' W 002°12'616.7
2018-Aug-10 23:00N 50°17' W 002°21'816.7
2018-Aug-10 22:30N 50°15' W 002°33'917.2
2018-Aug-10 22:00N 50°13' W 002°46'2107.1
2018-Aug-10 22:00N 50°12' W 002°48'815.6 320 / 151023.410.8 17.012.516.0
2018-Aug-10 21:30N 50°11' W 002°60'918.2
2018-Aug-10 21:00N 50°07' W 003°13'918.2
2018-Aug-10 20:30N 50°03' W 003°25'918.1
2018-Aug-10 20:00N 49°59' W 003°38'918.5
2018-Aug-10 19:30N 49°58' W 003°52'1418.4
2018-Aug-10 18:45N 49°54' W 004°13'618.4
2018-Aug-10 18:25N 49°53' W 004°22'1118.5
2018-Aug-10 17:51N 49°50' W 004°38'15014.0
2018-Aug-10 07:07N 52°14' W 005°46'316.2
2018-Aug-10 06:57N 52°17' W 005°46'716.2
2018-Aug-10 06:30N 52°24' W 005°43'814.9
2018-Aug-10 06:00N 52°30' W 005°36'4912.1 180 / 131015.810.8 14.0 8.014.0
2018-Aug-10 02:00N 53°18' W 005°24'3030.2 250 / 181014.410.8 13.8 8.215.0
2018-Aug-10 01:00N 53°48' W 005°18'2318.9 260 / 221015.110.8 13.512.013.0
2018-Aug-09 23:46N 54°11' W 005°15'815.7
2018-Aug-09 23:17N 54°18' W 005°14'415.9
2018-Aug-09 23:00N 54°23' W 005°14'815.6
2018-Aug-09 22:30N 54°31' W 005°14'816.2
2018-Aug-09 22:00N 54°39' W 005°18'3160.1
2018-Aug-09 22:00N 54°36' W 005°18'1122.3 230 / 101013.410.8 14.010.213.0
2018-Aug-09 21:30N 54°47' W 005°19'916.5
2018-Aug-09 20:59N 54°55' W 005°19'816.0
2018-Aug-09 20:30N 55°03' W 005°18'2715.8
2018-Aug-09 18:47N 55°28' W 005°00'517.3
2018-Aug-09 18:30N 55°33' W 004°59'917.6
2018-Aug-09 17:59N 55°42' W 004°60'714.5
2018-Aug-09 17:28N 55°50' W 004°57'715.2
2018-Aug-09 17:00N 55°56' W 004°54'5 9.4
2018-Aug-09 16:30N 55°57' W 004°46'0 0.1
2018-Aug-09 15:57N 55°57' W 004°46'0 0.0
2018-Aug-09 15:30N 55°57' W 004°46'0 0.0
2018-Aug-09 14:57N 55°57' W 004°46'0 0.0
2018-Aug-09 14:30N 55°57' W 004°46'0 0.0
2018-Aug-09 14:00N 55°57' W 004°46'0 0.0
2018-Aug-09 13:30N 55°57' W 004°46'0 0.0
2018-Aug-09 13:00N 55°57' W 004°46'0 0.0
2018-Aug-09 12:27N 55°57' W 004°46'0 0.0
2018-Aug-09 12:00N 55°57' W 004°46'0 0.0
2018-Aug-09 11:30N 55°57' W 004°46'0 0.0
2018-Aug-09 10:36N 55°57' W 004°46'0 0.0
2018-Aug-09 10:30N 55°57' W 004°46'0 0.0
2018-Aug-09 10:00N 55°57' W 004°46'0 0.0
2018-Aug-09 09:24N 55°57' W 004°46'0 0.0
2018-Aug-09 09:00N 55°57' W 004°46'0 0.0
2018-Aug-09 08:30N 55°57' W 004°46'0 0.0
2018-Aug-09 08:00N 55°57' W 004°46'0 0.0
2018-Aug-09 07:30N 55°57' W 004°46'0 1.0
2018-Aug-09 07:00N 55°58' W 004°46'5 9.5
2018-Aug-09 06:30N 55°56' W 004°54'916.7
2018-Aug-09 05:57N 55°47' W 004°58'713.9
2018-Aug-09 05:26N 55°40' W 004°59'612.7
2018-Aug-09 04:57N 55°34' W 004°57'714.7
2018-Aug-09 04:30N 55°27' W 004°59'816.2
2018-Aug-09 04:00N 55°22' W 005°09'916.4
2018-Aug-09 03:29N 55°17' W 005°22'715.7
2018-Aug-09 03:01N 55°14' W 005°33'815.7
2018-Aug-09 02:31N 55°14' W 005°47'612.2
2018-Aug-09 02:00N 55°14' W 005°58'13874.3
2018-Aug-09 02:00N 55°12' W 005°36'1734.5 200 / 211013.910.8 12.4 7.915.0
2018-Aug-09 01:30N 55°18' W 006°03'5 9.1
2018-Aug-09 01:00N 55°21' W 006°09'510.8
2018-Aug-09 00:30N 55°22' W 006°19'510.1
2018-Aug-09 00:00N 55°25' W 006°26'5 9.7
2018-Aug-08 23:30N 55°29' W 006°31'510.2
2018-Aug-08 23:00N 55°33' W 006°37'5 9.7
2018-Aug-08 22:30N 55°37' W 006°42'5 9.3
2018-Aug-08 22:00N 55°41' W 006°47'5299.8
2018-Aug-08 22:00N 55°36' W 006°48'918.0 230 / 211010.310.8 13.6 8.413.0
2018-Aug-08 21:30N 55°44' W 006°52'510.3
2018-Aug-08 21:00N 55°49' W 006°58'510.9
2018-Aug-08 20:30N 55°53' W 007°04'24 9.6
2018-Aug-08 18:00N 56°12' W 007°30'4611.6 240 / 241007.810.8 13.5 8.514.0
2018-Aug-08 14:00N 56°54' W 008°06'10112.7 250 / 231004.510.8 13.1 8.514.0
2018-Aug-08 06:00N 58°30' W 007°06'6015.1 230 / 271001.610.8 13.0 9.113.0
2018-Aug-08 02:00N 59°30' W 006°54'13115.9 200 / 7998.710.8 12.4 8.613.0
2018-Aug-07 17:46N 61°40' W 006°31'1014.8
2018-Aug-07 17:05N 61°50' W 006°32'214.6
2018-Aug-07 16:57N 61°52' W 006°33'715.6
2018-Aug-07 16:30N 61°58' W 006°42'  

Dump ship's entire track history